Sweet Home, OR

12:06 PM PDT on March 26, 2017 (GMT -0700)
MC0825 | | Change Station
Active Advisory: Flood Warning

Elev 600 ft 44.40 °N, 122.70 °W | Updated 2 minutes ago

Rain
Rain
44.0 °F
Feels Like 42 °F
N
4.0
Wind Variable Wind from ENE
Gusts 6.0 mph

Today
High -- | Low -- °F
--% Chance of Precip.
Yesterday
High -- | Low -- °F
Precip. -- in
Pressure 29.80 in
Visibility 10.0 miles
Clouds Scattered Clouds 3400 ft
Mostly Cloudy 3900 ft
Overcast 4800 ft
Windchill 42 °F
Dew Point 44 °F
Humidity 100%
Rainfall 0.28 in
Snow Depth Not available.
7:02 AM 7:31 PM
Waning Crescent, 2% visible
METAR KCVO 261855Z 18004KT 10SM SCT034 BKN039 OVC048 09/06 A2980 RMK AO1
Pressure 29.80 in
Visibility 10.0 miles
Clouds Scattered Clouds 3400 ft
Mostly Cloudy 3900 ft
Overcast 4800 ft
Windchill 42 °F
Dew Point 44 °F
Humidity 100%
Rainfall 0.28 in
Snow Depth Not available.
7:02 AM 7:31 PM
Waning Crescent, 2% visible
METAR KCVO 261855Z 18004KT 10SM SCT034 BKN039 OVC048 09/06 A2980 RMK AO1

Get Your Daily Forecast Email!

Thanks for signing up!

Be on the lookout for a verification email in your inbox.

You'll start receiving severe weather alerts in your inbox..

×

10-Day Weather Forecast

Almanac

Astronomy

Mar. 26, 2017 Rise Set
Actual Time
Civil Twilight
Nautical Twilight
Astronomical Twilight
Moon
Length of Visible Light
Length of Day
Tomorrow will be .
, % of the Moon is Illuminated

Today's Extremes

State Highs State Lows

Community

WunderPhotos

Upload Photos

1,962,540 photos uploaded!

WunderBlog® & News

Nearby

Air Quality

  Air Quality AQ Index Pollutant
Not available.

Snow Depth

Station Depth Elevation

Earthquake Activity

City Distance Mag. Time & Date
Minimum magnitude displayed is 2.5.

Earthquake Activity

City Distance Mag. Time & Date
Minimum magnitude displayed is 2.5.

Coastal Water Temperatures

Place Temperature

Stations

Nearby Weather Stations

Station Location Temp. Windchill Dew Point Humidity Wind Precip. Elev Updated Type
                   

Watches & Warnings

Flood Warning
Issued: 2:02 PM PDT Mar. 25, 2017 – National Weather Service

The Flood Warning continues for
the Columbia River at Vancouver.
* At 2 PM Saturday the stage was... 17.3 feet.
* Flood stage is 16.0 feet.
* Forecast... this river will fluctuate between 17.2 and 17.6 feet
through at least Wednesday.
* Impact... above 17 feet, expect flooding of some lowland access
roads, parking areas, and trails in the Portland and Vancouver
area, including Sauvie Island and Vancouver Lake. Access to some
houseboat communities may be impaired.


Lat... Lon 4555 12228 4567 12265 4576 12274 4576 12286 4556 12269